sensor_id;sensor_type;location;lat;lon;timestamp;P1;durP1;ratioP1;P2;durP2;ratioP2
57085;SDS011;42964;42.910;23.792;2024-03-08T00:02:19;13.95;;;8.00;;
57085;SDS011;42964;42.910;23.792;2024-03-08T00:07:18;15.35;;;8.90;;
57085;SDS011;42964;42.910;23.792;2024-03-08T00:12:17;14.82;;;9.35;;
57085;SDS011;42964;42.910;23.792;2024-03-08T00:17:16;12.20;;;7.18;;
57085;SDS011;42964;42.910;23.792;2024-03-08T00:22:15;12.88;;;7.53;;
57085;SDS011;42964;42.910;23.792;2024-03-08T00:27:15;13.40;;;7.63;;
57085;SDS011;42964;42.910;23.792;2024-03-08T00:37:13;12.52;;;8.15;;
57085;SDS011;42964;42.910;23.792;2024-03-08T00:42:12;14.10;;;8.57;;
57085;SDS011;42964;42.910;23.792;2024-03-08T00:47:12;14.07;;;8.85;;
57085;SDS011;42964;42.910;23.792;2024-03-08T00:52:11;13.50;;;8.95;;
57085;SDS011;42964;42.910;23.792;2024-03-08T00:57:11;15.50;;;8.23;;
57085;SDS011;42964;42.910;23.792;2024-03-08T01:02:10;13.02;;;7.00;;
57085;SDS011;42964;42.910;23.792;2024-03-08T01:07:09;13.57;;;5.47;;
57085;SDS011;42964;42.910;23.792;2024-03-08T01:12:08;7.68;;;4.60;;
57085;SDS011;42964;42.910;23.792;2024-03-08T01:17:07;8.68;;;4.60;;
57085;SDS011;42964;42.910;23.792;2024-03-08T01:22:08;6.93;;;3.90;;
57085;SDS011;42964;42.910;23.792;2024-03-08T01:27:07;7.82;;;4.45;;
57085;SDS011;42964;42.910;23.792;2024-03-08T01:32:07;10.77;;;5.68;;
57085;SDS011;42964;42.910;23.792;2024-03-08T01:37:06;9.95;;;6.25;;
57085;SDS011;42964;42.910;23.792;2024-03-08T01:42:05;10.32;;;6.45;;
57085;SDS011;42964;42.910;23.792;2024-03-08T01:47:04;9.65;;;5.72;;
57085;SDS011;42964;42.910;23.792;2024-03-08T01:52:04;7.90;;;4.85;;
57085;SDS011;42964;42.910;23.792;2024-03-08T01:57:03;9.73;;;5.68;;
57085;SDS011;42964;42.910;23.792;2024-03-08T02:07:07;38.55;;;19.75;;
57085;SDS011;42964;42.910;23.792;2024-03-08T02:12:06;38.35;;;19.67;;
57085;SDS011;42964;42.910;23.792;2024-03-08T02:17:06;40.92;;;19.60;;
57085;SDS011;42964;42.910;23.792;2024-03-08T02:22:06;40.45;;;19.10;;
57085;SDS011;42964;42.910;23.792;2024-03-08T02:27:05;37.95;;;19.38;;
57085;SDS011;42964;42.910;23.792;2024-03-08T02:32:05;34.47;;;18.48;;
57085;SDS011;42964;42.910;23.792;2024-03-08T02:37:04;32.45;;;16.65;;
57085;SDS011;42964;42.910;23.792;2024-03-08T02:42:03;32.85;;;16.90;;
57085;SDS011;42964;42.910;23.792;2024-03-08T02:47:02;28.95;;;15.77;;
57085;SDS011;42964;42.910;23.792;2024-03-08T02:52:01;26.00;;;14.18;;
57085;SDS011;42964;42.910;23.792;2024-03-08T03:01:59;19.42;;;11.48;;
57085;SDS011;42964;42.910;23.792;2024-03-08T03:06:58;22.63;;;12.40;;
57085;SDS011;42964;42.910;23.792;2024-03-08T03:11:57;19.63;;;11.43;;
57085;SDS011;42964;42.910;23.792;2024-03-08T03:16:57;19.67;;;11.55;;
57085;SDS011;42964;42.910;23.792;2024-03-08T03:21:56;17.42;;;10.25;;
57085;SDS011;42964;42.910;23.792;2024-03-08T03:26:55;14.27;;;8.88;;
57085;SDS011;42964;42.910;23.792;2024-03-08T03:31:54;15.00;;;9.45;;
57085;SDS011;42964;42.910;23.792;2024-03-08T03:36:53;14.52;;;8.80;;
57085;SDS011;42964;42.910;23.792;2024-03-08T03:41:54;11.50;;;7.60;;
57085;SDS011;42964;42.910;23.792;2024-03-08T03:46:53;15.73;;;9.85;;
57085;SDS011;42964;42.910;23.792;2024-03-08T03:51:52;15.23;;;8.55;;
57085;SDS011;42964;42.910;23.792;2024-03-08T03:56:50;14.15;;;8.70;;
57085;SDS011;42964;42.910;23.792;2024-03-08T04:01:51;13.63;;;8.45;;
57085;SDS011;42964;42.910;23.792;2024-03-08T04:06:51;13.60;;;8.60;;
57085;SDS011;42964;42.910;23.792;2024-03-08T04:11:50;13.73;;;8.32;;
57085;SDS011;42964;42.910;23.792;2024-03-08T04:16:51;20.10;;;12.88;;
57085;SDS011;42964;42.910;23.792;2024-03-08T04:21:51;19.10;;;12.18;;
57085;SDS011;42964;42.910;23.792;2024-03-08T04:31:50;21.60;;;13.10;;
57085;SDS011;42964;42.910;23.792;2024-03-08T04:36:52;16.67;;;8.23;;
57085;SDS011;42964;42.910;23.792;2024-03-08T04:41:51;15.98;;;9.20;;
57085;SDS011;42964;42.910;23.792;2024-03-08T04:46:50;14.02;;;9.00;;
57085;SDS011;42964;42.910;23.792;2024-03-08T04:51:49;14.40;;;8.93;;
57085;SDS011;42964;42.910;23.792;2024-03-08T04:56:48;18.20;;;10.85;;
57085;SDS011;42964;42.910;23.792;2024-03-08T05:01:47;15.10;;;8.70;;
57085;SDS011;42964;42.910;23.792;2024-03-08T05:06:46;18.40;;;11.15;;
57085;SDS011;42964;42.910;23.792;2024-03-08T05:11:45;17.40;;;10.57;;
57085;SDS011;42964;42.910;23.792;2024-03-08T05:16:48;13.75;;;9.30;;
57085;SDS011;42964;42.910;23.792;2024-03-08T05:21:48;16.63;;;9.70;;
57085;SDS011;42964;42.910;23.792;2024-03-08T05:26:47;16.80;;;10.50;;
57085;SDS011;42964;42.910;23.792;2024-03-08T05:31:47;16.55;;;9.18;;
57085;SDS011;42964;42.910;23.792;2024-03-08T05:36:48;16.52;;;10.55;;
57085;SDS011;42964;42.910;23.792;2024-03-08T05:41:52;20.35;;;12.18;;
57085;SDS011;42964;42.910;23.792;2024-03-08T05:46:51;18.35;;;10.20;;
57085;SDS011;42964;42.910;23.792;2024-03-08T05:51:50;19.17;;;10.10;;
57085;SDS011;42964;42.910;23.792;2024-03-08T05:56:50;18.70;;;10.13;;
57085;SDS011;42964;42.910;23.792;2024-03-08T06:01:51;18.90;;;11.45;;
57085;SDS011;42964;42.910;23.792;2024-03-08T06:06:50;21.98;;;12.55;;
57085;SDS011;42964;42.910;23.792;2024-03-08T06:11:51;22.65;;;14.00;;
57085;SDS011;42964;42.910;23.792;2024-03-08T06:16:52;21.27;;;12.70;;
57085;SDS011;42964;42.910;23.792;2024-03-08T06:21:51;13.52;;;8.10;;
57085;SDS011;42964;42.910;23.792;2024-03-08T06:26:50;17.08;;;9.48;;
57085;SDS011;42964;42.910;23.792;2024-03-08T06:31:49;18.60;;;9.45;;
57085;SDS011;42964;42.910;23.792;2024-03-08T06:36:48;20.52;;;11.65;;
57085;SDS011;42964;42.910;23.792;2024-03-08T06:41:47;24.95;;;13.15;;
57085;SDS011;42964;42.910;23.792;2024-03-08T06:46:46;19.67;;;11.82;;
57085;SDS011;42964;42.910;23.792;2024-03-08T06:51:45;23.58;;;13.70;;
57085;SDS011;42964;42.910;23.792;2024-03-08T06:56:44;17.50;;;9.52;;
57085;SDS011;42964;42.910;23.792;2024-03-08T07:01:42;18.17;;;10.55;;
57085;SDS011;42964;42.910;23.792;2024-03-08T07:06:41;17.40;;;9.95;;
57085;SDS011;42964;42.910;23.792;2024-03-08T07:11:40;14.00;;;8.63;;
57085;SDS011;42964;42.910;23.792;2024-03-08T07:16:40;15.13;;;9.02;;
57085;SDS011;42964;42.910;23.792;2024-03-08T07:21:40;17.30;;;9.75;;
57085;SDS011;42964;42.910;23.792;2024-03-08T07:26:39;16.38;;;9.60;;
57085;SDS011;42964;42.910;23.792;2024-03-08T07:31:37;15.70;;;9.07;;
57085;SDS011;42964;42.910;23.792;2024-03-08T07:36:49;16.60;;;10.10;;
57085;SDS011;42964;42.910;23.792;2024-03-08T07:41:49;19.08;;;10.50;;
57085;SDS011;42964;42.910;23.792;2024-03-08T07:46:51;15.90;;;9.20;;
57085;SDS011;42964;42.910;23.792;2024-03-08T07:51:50;16.08;;;8.80;;
57085;SDS011;42964;42.910;23.792;2024-03-08T07:56:50;11.82;;;6.55;;
57085;SDS011;42964;42.910;23.792;2024-03-08T08:06:48;11.82;;;7.25;;
57085;SDS011;42964;42.910;23.792;2024-03-08T08:11:48;17.65;;;10.02;;
57085;SDS011;42964;42.910;23.792;2024-03-08T08:16:48;11.82;;;7.18;;
57085;SDS011;42964;42.910;23.792;2024-03-08T08:21:50;13.23;;;6.93;;
57085;SDS011;42964;42.910;23.792;2024-03-08T08:26:49;12.27;;;7.18;;
57085;SDS011;42964;42.910;23.792;2024-03-08T08:31:48;13.77;;;7.78;;
57085;SDS011;42964;42.910;23.792;2024-03-08T08:36:48;14.55;;;8.32;;
57085;SDS011;42964;42.910;23.792;2024-03-08T08:41:47;17.55;;;9.60;;
57085;SDS011;42964;42.910;23.792;2024-03-08T08:46:46;17.90;;;10.52;;
57085;SDS011;42964;42.910;23.792;2024-03-08T08:51:54;14.57;;;8.07;;
57085;SDS011;42964;42.910;23.792;2024-03-08T08:56:53;12.00;;;7.78;;
57085;SDS011;42964;42.910;23.792;2024-03-08T09:01:52;12.05;;;6.95;;
57085;SDS011;42964;42.910;23.792;2024-03-08T09:06:52;11.77;;;6.72;;
57085;SDS011;42964;42.910;23.792;2024-03-08T09:11:52;10.30;;;6.50;;
57085;SDS011;42964;42.910;23.792;2024-03-08T09:16:52;11.70;;;6.85;;
57085;SDS011;42964;42.910;23.792;2024-03-08T09:21:51;12.43;;;7.18;;
57085;SDS011;42964;42.910;23.792;2024-03-08T09:26:50;13.32;;;7.38;;
57085;SDS011;42964;42.910;23.792;2024-03-08T09:31:51;11.63;;;7.18;;
57085;SDS011;42964;42.910;23.792;2024-03-08T09:36:50;14.10;;;8.27;;
57085;SDS011;42964;42.910;23.792;2024-03-08T09:41:50;10.80;;;6.63;;
57085;SDS011;42964;42.910;23.792;2024-03-08T09:46:49;11.63;;;7.25;;
57085;SDS011;42964;42.910;23.792;2024-03-08T09:51:51;10.70;;;7.60;;
57085;SDS011;42964;42.910;23.792;2024-03-08T09:56:51;12.15;;;7.78;;
57085;SDS011;42964;42.910;23.792;2024-03-08T10:01:51;13.90;;;8.50;;
57085;SDS011;42964;42.910;23.792;2024-03-08T10:06:55;13.05;;;7.32;;
57085;SDS011;42964;42.910;23.792;2024-03-08T10:11:56;10.80;;;6.82;;
57085;SDS011;42964;42.910;23.792;2024-03-08T10:16:57;9.63;;;6.65;;
57085;SDS011;42964;42.910;23.792;2024-03-08T10:21:58;12.90;;;7.85;;
57085;SDS011;42964;42.910;23.792;2024-03-08T10:27:03;12.93;;;8.40;;
57085;SDS011;42964;42.910;23.792;2024-03-08T10:32:03;13.38;;;7.47;;
57085;SDS011;42964;42.910;23.792;2024-03-08T10:37:04;15.52;;;7.13;;
57085;SDS011;42964;42.910;23.792;2024-03-08T10:42:04;10.57;;;6.30;;
57085;SDS011;42964;42.910;23.792;2024-03-08T10:52:14;9.48;;;6.40;;
57085;SDS011;42964;42.910;23.792;2024-03-08T10:57:17;13.85;;;7.70;;
57085;SDS011;42964;42.910;23.792;2024-03-08T11:02:18;12.25;;;6.47;;
57085;SDS011;42964;42.910;23.792;2024-03-08T11:07:18;14.00;;;6.90;;
57085;SDS011;42964;42.910;23.792;2024-03-08T11:22:29;9.23;;;5.45;;
57085;SDS011;42964;42.910;23.792;2024-03-08T11:27:31;9.07;;;5.50;;
57085;SDS011;42964;42.910;23.792;2024-03-08T11:32:30;7.35;;;4.47;;
57085;SDS011;42964;42.910;23.792;2024-03-08T11:37:32;12.23;;;5.78;;
57085;SDS011;42964;42.910;23.792;2024-03-08T11:42:35;8.10;;;4.60;;
57085;SDS011;42964;42.910;23.792;2024-03-08T11:47:35;8.55;;;4.35;;
57085;SDS011;42964;42.910;23.792;2024-03-08T11:52:34;10.15;;;5.95;;
57085;SDS011;42964;42.910;23.792;2024-03-08T11:57:33;6.80;;;4.43;;
57085;SDS011;42964;42.910;23.792;2024-03-08T12:02:32;5.72;;;4.00;;
57085;SDS011;42964;42.910;23.792;2024-03-08T12:07:36;6.22;;;4.13;;
57085;SDS011;42964;42.910;23.792;2024-03-08T12:12:35;9.07;;;6.07;;
57085;SDS011;42964;42.910;23.792;2024-03-08T12:17:34;11.45;;;6.95;;
57085;SDS011;42964;42.910;23.792;2024-03-08T12:22:33;10.48;;;5.60;;
57085;SDS011;42964;42.910;23.792;2024-03-08T12:32:32;10.18;;;4.40;;
57085;SDS011;42964;42.910;23.792;2024-03-08T12:37:31;7.15;;;4.68;;
57085;SDS011;42964;42.910;23.792;2024-03-08T12:42:30;8.00;;;5.45;;
57085;SDS011;42964;42.910;23.792;2024-03-08T12:47:30;8.45;;;5.63;;
57085;SDS011;42964;42.910;23.792;2024-03-08T12:52:30;8.98;;;6.22;;
57085;SDS011;42964;42.910;23.792;2024-03-08T12:57:29;10.20;;;6.65;;
57085;SDS011;42964;42.910;23.792;2024-03-08T13:02:28;15.27;;;7.95;;
57085;SDS011;42964;42.910;23.792;2024-03-08T13:07:27;11.70;;;6.00;;
57085;SDS011;42964;42.910;23.792;2024-03-08T13:12:26;11.48;;;6.50;;
57085;SDS011;42964;42.910;23.792;2024-03-08T13:17:25;11.30;;;7.07;;
57085;SDS011;42964;42.910;23.792;2024-03-08T13:22:24;14.68;;;9.18;;
57085;SDS011;42964;42.910;23.792;2024-03-08T13:27:23;19.23;;;9.48;;
57085;SDS011;42964;42.910;23.792;2024-03-08T13:32:23;14.98;;;9.50;;
57085;SDS011;42964;42.910;23.792;2024-03-08T13:37:23;18.05;;;11.20;;
57085;SDS011;42964;42.910;23.792;2024-03-08T13:42:22;20.40;;;11.40;;
57085;SDS011;42964;42.910;23.792;2024-03-08T13:47:21;20.33;;;11.82;;
57085;SDS011;42964;42.910;23.792;2024-03-08T13:52:21;22.00;;;11.63;;
57085;SDS011;42964;42.910;23.792;2024-03-08T13:57:23;16.23;;;9.68;;
57085;SDS011;42964;42.910;23.792;2024-03-08T14:02:22;14.23;;;9.40;;
57085;SDS011;42964;42.910;23.792;2024-03-08T14:07:26;13.98;;;8.63;;
57085;SDS011;42964;42.910;23.792;2024-03-08T14:12:27;19.00;;;11.95;;
57085;SDS011;42964;42.910;23.792;2024-03-08T14:17:26;10.75;;;6.00;;
57085;SDS011;42964;42.910;23.792;2024-03-08T14:22:26;16.02;;;8.35;;
57085;SDS011;42964;42.910;23.792;2024-03-08T14:27:25;10.43;;;6.15;;
57085;SDS011;42964;42.910;23.792;2024-03-08T14:32:25;13.18;;;8.23;;
57085;SDS011;42964;42.910;23.792;2024-03-08T14:37:24;17.10;;;8.50;;
57085;SDS011;42964;42.910;23.792;2024-03-08T14:42:27;15.60;;;8.98;;
57085;SDS011;42964;42.910;23.792;2024-03-08T14:47:26;19.40;;;10.60;;
57085;SDS011;42964;42.910;23.792;2024-03-08T14:52:27;17.75;;;10.77;;
57085;SDS011;42964;42.910;23.792;2024-03-08T14:57:26;21.73;;;12.70;;
57085;SDS011;42964;42.910;23.792;2024-03-08T15:02:24;18.80;;;10.88;;
57085;SDS011;42964;42.910;23.792;2024-03-08T15:07:24;18.13;;;11.63;;
57085;SDS011;42964;42.910;23.792;2024-03-08T15:12:24;24.02;;;11.38;;
57085;SDS011;42964;42.910;23.792;2024-03-08T15:17:24;18.75;;;10.43;;
57085;SDS011;42964;42.910;23.792;2024-03-08T15:22:23;18.25;;;10.73;;
57085;SDS011;42964;42.910;23.792;2024-03-08T15:27:22;22.20;;;11.93;;
57085;SDS011;42964;42.910;23.792;2024-03-08T15:32:22;21.52;;;11.93;;
57085;SDS011;42964;42.910;23.792;2024-03-08T15:37:21;28.15;;;15.90;;
57085;SDS011;42964;42.910;23.792;2024-03-08T15:42:20;23.55;;;14.68;;
57085;SDS011;42964;42.910;23.792;2024-03-08T15:47:21;28.13;;;14.73;;
57085;SDS011;42964;42.910;23.792;2024-03-08T15:52:20;25.20;;;14.50;;
57085;SDS011;42964;42.910;23.792;2024-03-08T15:57:21;18.08;;;11.20;;
57085;SDS011;42964;42.910;23.792;2024-03-08T16:02:20;27.77;;;16.70;;
57085;SDS011;42964;42.910;23.792;2024-03-08T16:07:21;29.63;;;18.33;;
57085;SDS011;42964;42.910;23.792;2024-03-08T16:12:20;24.25;;;14.38;;
57085;SDS011;42964;42.910;23.792;2024-03-08T16:17:20;26.23;;;15.15;;
57085;SDS011;42964;42.910;23.792;2024-03-08T16:22:19;25.35;;;14.77;;
57085;SDS011;42964;42.910;23.792;2024-03-08T16:27:18;28.42;;;16.48;;
57085;SDS011;42964;42.910;23.792;2024-03-08T16:32:17;27.23;;;15.73;;
57085;SDS011;42964;42.910;23.792;2024-03-08T16:37:18;22.60;;;13.40;;
57085;SDS011;42964;42.910;23.792;2024-03-08T16:42:18;25.45;;;14.98;;
57085;SDS011;42964;42.910;23.792;2024-03-08T16:47:19;24.55;;;13.10;;
57085;SDS011;42964;42.910;23.792;2024-03-08T16:52:21;22.55;;;12.75;;
57085;SDS011;42964;42.910;23.792;2024-03-08T16:57:21;40.50;;;17.25;;
57085;SDS011;42964;42.910;23.792;2024-03-08T17:02:20;32.95;;;15.98;;
57085;SDS011;42964;42.910;23.792;2024-03-08T17:07:19;24.25;;;14.40;;
57085;SDS011;42964;42.910;23.792;2024-03-08T17:12:20;38.67;;;19.02;;
57085;SDS011;42964;42.910;23.792;2024-03-08T17:17:19;46.55;;;21.95;;
57085;SDS011;42964;42.910;23.792;2024-03-08T17:22:19;35.53;;;17.45;;
57085;SDS011;42964;42.910;23.792;2024-03-08T17:27:18;29.40;;;15.88;;
57085;SDS011;42964;42.910;23.792;2024-03-08T17:32:17;35.03;;;20.13;;
57085;SDS011;42964;42.910;23.792;2024-03-08T17:37:16;42.45;;;23.02;;
57085;SDS011;42964;42.910;23.792;2024-03-08T17:42:17;32.00;;;17.23;;
57085;SDS011;42964;42.910;23.792;2024-03-08T17:47:17;27.75;;;17.33;;
57085;SDS011;42964;42.910;23.792;2024-03-08T17:52:17;31.48;;;16.02;;
57085;SDS011;42964;42.910;23.792;2024-03-08T17:57:18;30.92;;;15.65;;
57085;SDS011;42964;42.910;23.792;2024-03-08T18:02:18;22.02;;;13.90;;
57085;SDS011;42964;42.910;23.792;2024-03-08T18:07:17;26.15;;;13.95;;
57085;SDS011;42964;42.910;23.792;2024-03-08T18:12:16;34.00;;;17.10;;
57085;SDS011;42964;42.910;23.792;2024-03-08T18:17:15;26.85;;;14.00;;
57085;SDS011;42964;42.910;23.792;2024-03-08T18:22:14;39.08;;;19.52;;
57085;SDS011;42964;42.910;23.792;2024-03-08T18:27:13;39.20;;;20.60;;
57085;SDS011;42964;42.910;23.792;2024-03-08T18:32:13;30.67;;;17.92;;
57085;SDS011;42964;42.910;23.792;2024-03-08T18:37:11;31.45;;;17.00;;
57085;SDS011;42964;42.910;23.792;2024-03-08T18:47:11;26.30;;;14.40;;
57085;SDS011;42964;42.910;23.792;2024-03-08T18:52:10;33.60;;;17.40;;
57085;SDS011;42964;42.910;23.792;2024-03-08T18:57:09;33.40;;;16.85;;
57085;SDS011;42964;42.910;23.792;2024-03-08T19:07:07;26.27;;;13.93;;
57085;SDS011;42964;42.910;23.792;2024-03-08T19:12:09;28.73;;;16.40;;
57085;SDS011;42964;42.910;23.792;2024-03-08T19:17:11;23.95;;;13.77;;
57085;SDS011;42964;42.910;23.792;2024-03-08T19:22:11;23.73;;;13.48;;
57085;SDS011;42964;42.910;23.792;2024-03-08T19:27:12;25.83;;;13.38;;
57085;SDS011;42964;42.910;23.792;2024-03-08T19:32:11;24.48;;;13.52;;
57085;SDS011;42964;42.910;23.792;2024-03-08T19:37:10;25.38;;;13.10;;
57085;SDS011;42964;42.910;23.792;2024-03-08T19:42:09;25.67;;;14.13;;
57085;SDS011;42964;42.910;23.792;2024-03-08T19:52:10;25.92;;;13.70;;
57085;SDS011;42964;42.910;23.792;2024-03-08T19:57:09;32.65;;;16.02;;
57085;SDS011;42964;42.910;23.792;2024-03-08T20:02:08;27.65;;;14.65;;
57085;SDS011;42964;42.910;23.792;2024-03-08T20:07:07;27.33;;;15.05;;
57085;SDS011;42964;42.910;23.792;2024-03-08T20:12:06;26.95;;;13.70;;
57085;SDS011;42964;42.910;23.792;2024-03-08T20:17:06;24.65;;;12.98;;
57085;SDS011;42964;42.910;23.792;2024-03-08T20:22:07;27.70;;;15.27;;
57085;SDS011;42964;42.910;23.792;2024-03-08T20:27:06;31.23;;;16.77;;
57085;SDS011;42964;42.910;23.792;2024-03-08T20:32:05;36.42;;;17.70;;
57085;SDS011;42964;42.910;23.792;2024-03-08T20:37:06;29.02;;;15.20;;
57085;SDS011;42964;42.910;23.792;2024-03-08T20:42:07;28.65;;;14.50;;
57085;SDS011;42964;42.910;23.792;2024-03-08T20:47:06;25.80;;;14.23;;
57085;SDS011;42964;42.910;23.792;2024-03-08T20:52:05;28.08;;;14.52;;
57085;SDS011;42964;42.910;23.792;2024-03-08T20:57:04;25.63;;;14.57;;
57085;SDS011;42964;42.910;23.792;2024-03-08T21:02:03;23.13;;;13.27;;
57085;SDS011;42964;42.910;23.792;2024-03-08T21:07:02;35.35;;;15.60;;
57085;SDS011;42964;42.910;23.792;2024-03-08T21:12:04;29.58;;;14.32;;
57085;SDS011;42964;42.910;23.792;2024-03-08T21:17:05;37.15;;;17.65;;
57085;SDS011;42964;42.910;23.792;2024-03-08T21:22:04;25.60;;;13.88;;
57085;SDS011;42964;42.910;23.792;2024-03-08T21:27:03;29.40;;;15.88;;
57085;SDS011;42964;42.910;23.792;2024-03-08T21:32:02;30.23;;;14.20;;
57085;SDS011;42964;42.910;23.792;2024-03-08T21:37:05;30.27;;;15.32;;
57085;SDS011;42964;42.910;23.792;2024-03-08T21:42:05;28.63;;;16.67;;
57085;SDS011;42964;42.910;23.792;2024-03-08T21:47:05;36.13;;;17.90;;
57085;SDS011;42964;42.910;23.792;2024-03-08T21:52:04;29.30;;;14.35;;
57085;SDS011;42964;42.910;23.792;2024-03-08T22:02:02;30.25;;;14.50;;
57085;SDS011;42964;42.910;23.792;2024-03-08T22:07:03;30.40;;;14.43;;
57085;SDS011;42964;42.910;23.792;2024-03-08T22:12:05;31.23;;;15.73;;
57085;SDS011;42964;42.910;23.792;2024-03-08T22:17:07;28.35;;;15.32;;
57085;SDS011;42964;42.910;23.792;2024-03-08T22:22:07;25.95;;;13.82;;
57085;SDS011;42964;42.910;23.792;2024-03-08T22:27:07;36.40;;;18.15;;
57085;SDS011;42964;42.910;23.792;2024-03-08T22:32:06;33.00;;;16.60;;
57085;SDS011;42964;42.910;23.792;2024-03-08T22:37:06;26.77;;;14.63;;
57085;SDS011;42964;42.910;23.792;2024-03-08T22:42:08;29.15;;;15.32;;
57085;SDS011;42964;42.910;23.792;2024-03-08T22:47:07;34.20;;;16.95;;
57085;SDS011;42964;42.910;23.792;2024-03-08T22:52:06;26.10;;;13.95;;
57085;SDS011;42964;42.910;23.792;2024-03-08T22:57:05;26.95;;;14.60;;
57085;SDS011;42964;42.910;23.792;2024-03-08T23:02:06;26.33;;;15.15;;
57085;SDS011;42964;42.910;23.792;2024-03-08T23:07:07;26.63;;;14.88;;
57085;SDS011;42964;42.910;23.792;2024-03-08T23:12:09;27.00;;;14.70;;
57085;SDS011;42964;42.910;23.792;2024-03-08T23:17:08;41.25;;;17.98;;
57085;SDS011;42964;42.910;23.792;2024-03-08T23:22:07;28.35;;;15.43;;
57085;SDS011;42964;42.910;23.792;2024-03-08T23:27:10;30.27;;;16.40;;
57085;SDS011;42964;42.910;23.792;2024-03-08T23:32:09;33.15;;;16.90;;
57085;SDS011;42964;42.910;23.792;2024-03-08T23:37:09;33.08;;;16.60;;
57085;SDS011;42964;42.910;23.792;2024-03-08T23:42:08;32.47;;;16.98;;
57085;SDS011;42964;42.910;23.792;2024-03-08T23:47:09;28.48;;;14.93;;
57085;SDS011;42964;42.910;23.792;2024-03-08T23:52:08;30.88;;;15.70;;
57085;SDS011;42964;42.910;23.792;2024-03-08T23:57:08;26.95;;;14.95;;
